Portada
METAR-TAF:

METAR-TAF

Aeroports :

Zaporíjjia, Ucraïna

latitud: 47-52-02N, longitud: 035-18-59E, altitud: 114 m

Observació

L'informe es va fer fa 25 minuts, a les 19:00 UTC
Vent 2 kt del Nord-Oest
Temperatura 20°C
Humitat 60%
Pressió 1017 hPa
Visibilitat 10 km o més
sense núvols per sota de 1500 mi sense presència de cumulonimbus.

METAR: UKDE 191900Z 32001MPS CAVOK 20/12 Q1017 R02R/090070 NOSIG

Hora: 22:25 (19:25 UTC)

Pronòstic

L'informe es va fer fa 2 hores i 22 minuts, a les 17:03 UTC
Pronòstic vàlid del 19 a les 18 UTC al 20 a les 03 UTC
Vent 6 kt del Nord-Oest
Visibilitat 10 km o més
sense núvols per sota de 1500 mi sense presència de cumulonimbus.

TAF: UKDE 191703Z 1918/2003 31003MPS CAVOK

Observacions i pronòstics meteorològics de més de 4000 aeroports (METAR i TAF).

Les estacions disponibles són els punts grocs i vermells al mapa.

Posi el ratolí al punt desitjat per veure el nom de l'estació.

Feu clic per veure les observacions i els pronòstics meteorològics.

Per canviar el mapa: feu clic els botons verds amb una creu de color negre per apropar; al botó verd amb un guió per allunyar la imatge; o en les fletxes verdes per a mapes adjacents.


METAR-TAF: